Time;durP1;ratioP1;P1;durP2;ratioP2;P2;SDS_P1;SDS_P2;PMS_P1;PMS_P2;Temp;Humidity;BMP_temperature;BMP_pressure;BME280_temperature;BME280_humidity;BME280_pressure;Samples;Min_cycle;Max_cycle;Signal;HPM_P1;HPM_P2
2024/03/04 00:00:16;;;;;;;13.65;8.85;;;;;;;;;;4699766;28;9999945;-54
2024/03/04 00:02:42;;;;;;;13.30;7.82;;;;;;;;;;5048006;28;20075;-54
2024/03/04 00:05:08;;;;;;;13.18;7.63;;;;;;;;;;5048864;28;20029;-50
2024/03/04 00:07:35;;;;;;;12.88;7.50;;;;;;;;;;5049021;28;20096;-55
2024/03/04 00:10:01;;;;;;;13.35;7.80;;;;;;;;;;5048811;28;20025;-48
2024/03/04 00:12:28;;;;;;;13.27;7.95;;;;;;;;;;5046768;28;20025;-48
2024/03/04 00:14:54;;;;;;;13.43;8.10;;;;;;;;;;5047686;28;20039;-50
2024/03/04 00:17:20;;;;;;;13.32;7.97;;;;;;;;;;5048601;28;20025;-51
2024/03/04 00:19:47;;;;;;;13.35;8.10;;;;;;;;;;5048161;28;20518;-49
2024/03/04 00:22:13;;;;;;;13.55;8.40;;;;;;;;;;5047230;28;20032;-50
2024/03/04 00:24:40;;;;;;;13.63;8.70;;;;;;;;;;5047713;28;20025;-50
2024/03/04 00:27:06;;;;;;;13.60;8.60;;;;;;;;;;5048376;28;20627;-47
2024/03/04 00:29:32;;;;;;;13.90;9.45;;;;;;;;;;5048529;28;20024;-50
2024/03/04 00:31:58;;;;;;;13.48;8.15;;;;;;;;;;5047903;28;20037;-49
2024/03/04 00:34:24;;;;;;;13.50;8.30;;;;;;;;;;5047013;28;20031;-52
2024/03/04 00:36:51;;;;;;;13.60;8.80;;;;;;;;;;5047508;28;20032;-53
2024/03/04 00:39:17;;;;;;;13.30;8.10;;;;;;;;;;5029755;28;20021;-54
2024/03/04 00:41:43;;;;;;;12.88;7.60;;;;;;;;;;5047125;28;20017;-52
2024/03/04 00:44:10;;;;;;;12.88;7.50;;;;;;;;;;5059291;28;20111;-51
2024/03/04 00:46:39;;;;;;;12.63;7.38;;;;;;;;;;5031082;28;20500;-51
2024/03/04 00:49:05;;;;;;;12.55;7.32;;;;;;;;;;5087238;22;20181;-57
2024/03/04 00:51:31;;;;;;;12.55;7.38;;;;;;;;;;5088946;28;20121;-56
2024/03/04 00:53:58;;;;;;;12.35;7.20;;;;;;;;;;5087217;28;20504;-57
2024/03/04 00:56:24;;;;;;;12.52;7.30;;;;;;;;;;5088754;28;20024;-59
2024/03/04 00:58:50;;;;;;;12.35;7.20;;;;;;;;;;5088458;28;20028;-57
2024/03/04 01:01:16;;;;;;;12.40;7.20;;;;;;;;;;5088612;28;20389;-55
2024/03/04 01:03:42;;;;;;;12.25;7.30;;;;;;;;;;5087954;28;20020;-54
2024/03/04 01:06:08;;;;;;;11.98;6.97;;;;;;;;;;5088661;28;20023;-60
2024/03/04 01:08:34;;;;;;;11.90;6.90;;;;;;;;;;5089910;28;20035;-54
2024/03/04 01:11:00;;;;;;;12.52;8.23;;;;;;;;;;5089037;28;20028;-57
2024/03/04 01:13:26;;;;;;;11.80;7.18;;;;;;;;;;5088580;28;20059;-59
2024/03/04 01:15:52;;;;;;;13.02;8.98;;;;;;;;;;5089104;28;20055;-58
2024/03/04 01:18:20;;;;;;;11.68;6.80;;;;;;;;;;5089062;28;20429;-58
2024/03/04 01:20:46;;;;;;;12.30;7.47;;;;;;;;;;5089008;28;20016;-55
2024/03/04 01:23:12;;;;;;;24.55;13.73;;;;;;;;;;5088794;28;20270;-57
2024/03/04 01:25:39;;;;;;;28.30;14.32;;;;;;;;;;5089409;28;20024;-54
2024/03/04 01:28:06;;;;;;;11.45;6.97;;;;;;;;;;5089116;28;20016;-56
2024/03/04 01:30:32;;;;;;;13.68;10.05;;;;;;;;;;5089119;28;20024;-57
2024/03/04 01:32:59;;;;;;;17.42;10.90;;;;;;;;;;5087785;28;20427;-53
2024/03/04 01:35:26;;;;;;;15.20;9.27;;;;;;;;;;5088884;28;20503;-56
2024/03/04 01:37:52;;;;;;;22.35;10.38;;;;;;;;;;5089145;28;20355;-56
2024/03/04 01:40:18;;;;;;;28.30;12.93;;;;;;;;;;5088943;28;20035;-57
2024/03/04 01:42:44;;;;;;;23.27;14.13;;;;;;;;;;5088401;28;20137;-58
2024/03/04 01:45:15;;;;;;;12.45;7.93;;;;;;;;;;5088931;28;20115;-55
2024/03/04 01:47:42;;;;;;;15.35;8.95;;;;;;;;;;5088961;28;20106;-58
2024/03/04 01:50:08;;;;;;;14.43;9.38;;;;;;;;;;5070845;28;20145;-58
2024/03/04 01:52:35;;;;;;;24.15;14.73;;;;;;;;;;5088316;28;20512;-58
2024/03/04 01:55:02;;;;;;;17.77;13.23;;;;;;;;;;5088963;28;20059;-57
2024/03/04 01:57:28;;;;;;;12.77;9.50;;;;;;;;;;5089003;28;20078;-57
2024/03/04 01:59:54;;;;;;;23.73;12.38;;;;;;;;;;5070843;28;20021;-55
2024/03/04 02:02:21;;;;;;;21.05;9.27;;;;;;;;;;5088336;28;20028;-57
2024/03/04 02:04:47;;;;;;;11.98;8.48;;;;;;;;;;5070823;28;20398;-56
2024/03/04 02:07:16;;;;;;;15.52;11.05;;;;;;;;;;5088756;28;20048;-55
2024/03/04 02:09:42;;;;;;;20.63;15.45;;;;;;;;;;5088773;28;20032;-55
2024/03/04 02:12:09;;;;;;;23.00;12.95;;;;;;;;;;5087966;28;20024;-57
2024/03/04 02:14:36;;;;;;;24.38;12.18;;;;;;;;;;5070514;28;20107;-56
2024/03/04 02:17:02;;;;;;;15.98;9.63;;;;;;;;;;5088639;28;20134;-57
2024/03/04 02:19:28;;;;;;;17.80;11.18;;;;;;;;;;5070245;28;20024;-57
2024/03/04 02:22:01;;;;;;;11.55;8.13;;;;;;;;;;5088382;28;20031;-56
2024/03/04 02:24:27;;;;;;;11.77;7.30;;;;;;;;;;5088609;28;20020;-56
2024/03/04 02:26:53;;;;;;;10.30;6.10;;;;;;;;;;5088719;28;20039;-55
2024/03/04 02:29:19;;;;;;;10.27;6.00;;;;;;;;;;5088584;28;20103;-59
2024/03/04 02:31:46;;;;;;;10.20;5.93;;;;;;;;;;5088218;28;20039;-57
2024/03/04 02:34:12;;;;;;;10.70;6.40;;;;;;;;;;5070317;28;20121;-57
2024/03/04 02:36:39;;;;;;;10.40;6.13;;;;;;;;;;5088557;28;20035;-57
2024/03/04 02:39:10;;;;;;;10.80;6.30;;;;;;;;;;5088565;28;20086;-57
2024/03/04 02:41:36;;;;;;;10.80;6.30;;;;;;;;;;5088207;28;20020;-54
2024/03/04 02:44:02;;;;;;;12.75;8.25;;;;;;;;;;5070031;28;20111;-57
2024/03/04 02:46:28;;;;;;;11.07;6.50;;;;;;;;;;5092111;28;20070;-55
2024/03/04 02:48:55;;;;;;;12.25;7.32;;;;;;;;;;5091735;28;20035;-57
2024/03/04 02:51:21;;;;;;;11.52;7.18;;;;;;;;;;5091842;28;20028;-56
2024/03/04 02:53:47;;;;;;;14.98;8.65;;;;;;;;;;5091528;28;20593;-59
2024/03/04 02:56:13;;;;;;;11.07;6.68;;;;;;;;;;5091832;28;20115;-55
2024/03/04 02:58:39;;;;;;;10.20;6.00;;;;;;;;;;5092014;28;20107;-56
2024/03/04 03:01:05;;;;;;;11.88;7.97;;;;;;;;;;5091852;28;20034;-58
2024/03/04 03:03:31;;;;;;;10.55;6.20;;;;;;;;;;5091282;28;20016;-55
2024/03/04 03:05:57;;;;;;;10.65;6.25;;;;;;;;;;5073564;28;20024;-57
2024/03/04 03:08:23;;;;;;;10.63;6.30;;;;;;;;;;5091741;28;20100;-57
2024/03/04 03:10:49;;;;;;;10.55;6.25;;;;;;;;;;5073654;28;20028;-55
2024/03/04 03:13:15;;;;;;;16.58;7.85;;;;;;;;;;5091220;28;20489;-58
2024/03/04 03:15:41;;;;;;;9.90;5.90;;;;;;;;;;5091802;28;20028;-57
2024/03/04 03:18:08;;;;;;;13.27;9.68;;;;;;;;;;5073393;28;20095;-58
2024/03/04 03:20:34;;;;;;;14.77;10.73;;;;;;;;;;5091739;28;20462;-57
2024/03/04 03:23:00;;;;;;;12.43;7.68;;;;;;;;;;5072902;28;20023;-57
2024/03/04 03:25:26;;;;;;;16.73;12.75;;;;;;;;;;5091451;28;20389;-59
2024/03/04 03:27:52;;;;;;;14.60;8.45;;;;;;;;;;5091436;28;20516;-58
2024/03/04 03:30:19;;;;;;;12.90;8.10;;;;;;;;;;5091323;28;20032;-59
2024/03/04 03:32:45;;;;;;;23.38;13.75;;;;;;;;;;5090579;28;20024;-52
2024/03/04 03:35:11;;;;;;;9.45;5.60;;;;;;;;;;5091258;28;20037;-56
2024/03/04 03:37:37;;;;;;;14.32;11.52;;;;;;;;;;5091127;28;20478;-55
2024/03/04 03:40:04;;;;;;;24.55;9.93;;;;;;;;;;5091030;28;20093;-57
2024/03/04 03:42:33;;;;;;;9.48;5.80;;;;;;;;;;5090440;28;20032;-57
2024/03/04 03:44:59;;;;;;;13.90;8.52;;;;;;;;;;5091068;28;20038;-57
2024/03/04 03:47:25;;;;;;;37.15;19.02;;;;;;;;;;5072786;28;20024;-59
2024/03/04 03:49:51;;;;;;;22.55;17.52;;;;;;;;;;5072620;28;20500;-54
2024/03/04 03:52:17;;;;;;;11.23;8.57;;;;;;;;;;5090236;28;20020;-56
2024/03/04 03:54:43;;;;;;;10.60;6.57;;;;;;;;;;5090794;28;20035;-55
2024/03/04 03:57:09;;;;;;;15.98;6.88;;;;;;;;;;5090089;28;20464;-59
2024/03/04 03:59:35;;;;;;;15.32;9.07;;;;;;;;;;5090759;28;20028;-57
2024/03/04 04:02:01;;;;;;;11.68;6.80;;;;;;;;;;5090301;28;20043;-56
2024/03/04 04:04:27;;;;;;;10.70;6.28;;;;;;;;;;5090401;28;20067;-54
2024/03/04 04:06:53;;;;;;;14.27;7.80;;;;;;;;;;5090626;28;20043;-56
2024/03/04 04:09:19;;;;;;;11.13;8.60;;;;;;;;;;5090313;28;20452;-53
2024/03/04 04:11:45;;;;;;;9.80;5.90;;;;;;;;;;5090310;28;20024;-55
2024/03/04 04:14:11;;;;;;;10.80;6.47;;;;;;;;;;5090177;28;20393;-54
2024/03/04 04:16:37;;;;;;;13.15;7.78;;;;;;;;;;5090380;28;20061;-54
2024/03/04 04:19:04;;;;;;;17.27;8.93;;;;;;;;;;5072290;28;20119;-55
2024/03/04 04:21:31;;;;;;;17.10;11.02;;;;;;;;;;5090372;28;20070;-56
2024/03/04 04:23:57;;;;;;;11.75;7.65;;;;;;;;;;5089907;28;20164;-57
2024/03/04 04:26:26;;;;;;;10.27;6.15;;;;;;;;;;5090454;28;20028;-54
2024/03/04 04:28:53;;;;;;;10.38;6.47;;;;;;;;;;5072873;28;20024;-59
2024/03/04 04:31:22;;;;;;;13.60;8.82;;;;;;;;;;5090114;28;20020;-53
2024/03/04 04:33:48;;;;;;;9.60;5.63;;;;;;;;;;5089954;28;20038;-54
2024/03/04 04:36:16;;;;;;;9.10;5.40;;;;;;;;;;5090246;28;20035;-55
2024/03/04 04:38:42;;;;;;;12.23;7.57;;;;;;;;;;5090079;28;20016;-54
2024/03/04 04:41:08;;;;;;;11.38;7.90;;;;;;;;;;5090001;28;20100;-56
2024/03/04 04:43:34;;;;;;;9.57;5.70;;;;;;;;;;5089461;28;20400;-58
2024/03/04 04:46:00;;;;;;;10.88;6.70;;;;;;;;;;5089958;28;20028;-56
2024/03/04 04:48:26;;;;;;;9.40;5.57;;;;;;;;;;5071711;28;20024;-52
2024/03/04 04:50:52;;;;;;;9.18;5.47;;;;;;;;;;5090038;28;20438;-57
2024/03/04 04:53:20;;;;;;;12.63;9.70;;;;;;;;;;5089228;28;20063;-58
2024/03/04 04:55:46;;;;;;;14.52;10.80;;;;;;;;;;5089710;28;20103;-58
2024/03/04 04:58:14;;;;;;;9.45;5.60;;;;;;;;;;5089755;28;20434;-58
2024/03/04 05:00:40;;;;;;;10.37;6.07;;;;;;;;;;5071668;28;20082;-57
2024/03/04 05:03:06;;;;;;;9.85;6.68;;;;;;;;;;5089283;28;20047;-57
2024/03/04 05:05:32;;;;;;;9.60;5.80;;;;;;;;;;5089759;28;20024;-59
2024/03/04 05:07:58;;;;;;;16.23;10.98;;;;;;;;;;5070464;28;20028;-57
2024/03/04 05:10:24;;;;;;;9.27;5.50;;;;;;;;;;5089487;28;20111;-57
2024/03/04 05:12:50;;;;;;;10.48;7.00;;;;;;;;;;5088663;28;20099;-55
2024/03/04 05:15:17;;;;;;;9.68;6.00;;;;;;;;;;5089287;28;20485;-53
2024/03/04 05:17:43;;;;;;;16.60;10.82;;;;;;;;;;5089339;28;20070;-56
2024/03/04 05:20:09;;;;;;;10.10;5.97;;;;;;;;;;5089319;28;20028;-55
2024/03/04 05:22:36;;;;;;;13.18;8.95;;;;;;;;;;5070466;28;20020;-57
2024/03/04 05:25:02;;;;;;;17.13;9.52;;;;;;;;;;5089251;28;20081;-56
2024/03/04 05:27:32;;;;;;;17.15;10.07;;;;;;;;;;5089190;28;20063;-59
2024/03/04 05:29:58;;;;;;;16.40;11.07;;;;;;;;;;5070947;28;20040;-57
2024/03/04 05:32:24;;;;;;;20.50;8.85;;;;;;;;;;5088355;28;20547;-57
2024/03/04 05:34:50;;;;;;;23.92;11.38;;;;;;;;;;5089157;28;20028;-57
2024/03/04 05:37:17;;;;;;;18.20;11.15;;;;;;;;;;5089030;28;20486;-54
2024/03/04 05:39:46;;;;;;;19.23;11.98;;;;;;;;;;5088807;28;20111;-58
2024/03/04 05:42:13;;;;;;;14.98;10.70;;;;;;;;;;5088451;28;20020;-59
2024/03/04 05:44:39;;;;;;;9.18;5.40;;;;;;;;;;5089179;28;20028;-58
2024/03/04 05:47:06;;;;;;;11.55;6.25;;;;;;;;;;5088194;28;20047;-59
2024/03/04 05:49:32;;;;;;;9.10;5.40;;;;;;;;;;5089189;28;20036;-58
2024/03/04 05:51:59;;;;;;;14.52;8.25;;;;;;;;;;5088668;28;20051;-57
2024/03/04 05:54:26;;;;;;;8.88;5.30;;;;;;;;;;5088621;28;20603;-58
2024/03/04 05:56:52;;;;;;;25.48;11.93;;;;;;;;;;5088891;28;20035;-59
2024/03/04 05:59:18;;;;;;;9.50;5.60;;;;;;;;;;5088773;28;20020;-56
2024/03/04 06:01:45;;;;;;;15.30;10.43;;;;;;;;;;5070324;28;20016;-54
2024/03/04 06:04:11;;;;;;;10.10;6.05;;;;;;;;;;5088617;28;20020;-57
2024/03/04 06:06:37;;;;;;;17.13;7.95;;;;;;;;;;5088697;28;20027;-56
2024/03/04 06:09:03;;;;;;;16.83;8.65;;;;;;;;;;5070637;28;20028;-57
2024/03/04 06:11:29;;;;;;;14.23;9.60;;;;;;;;;;5088977;28;20024;-59
2024/03/04 06:13:56;;;;;;;9.80;5.80;;;;;;;;;;5069865;28;20673;-60
2024/03/04 06:16:22;;;;;;;17.33;12.50;;;;;;;;;;5088621;28;20040;-60
2024/03/04 06:18:48;;;;;;;10.48;6.47;;;;;;;;;;5088491;28;20058;-59
2024/03/04 06:21:14;;;;;;;9.90;5.90;;;;;;;;;;5092459;28;20083;-60
2024/03/04 06:23:40;;;;;;;12.30;7.82;;;;;;;;;;5092133;28;20028;-57
2024/03/04 06:26:11;;;;;;;10.68;6.60;;;;;;;;;;5092194;28;20101;-56
2024/03/04 06:28:38;;;;;;;31.10;17.50;;;;;;;;;;5092501;28;20024;-56
2024/03/04 06:31:05;;;;;;;12.93;8.50;;;;;;;;;;5092483;28;20093;-57
2024/03/04 06:33:31;;;;;;;10.13;6.18;;;;;;;;;;5091720;28;20571;-55
2024/03/04 06:35:57;;;;;;;9.20;5.50;;;;;;;;;;5092523;28;20123;-56
2024/03/04 06:38:24;;;;;;;12.00;8.68;;;;;;;;;;5092634;28;20516;-56
2024/03/04 06:40:50;;;;;;;12.77;7.10;;;;;;;;;;5092970;28;20034;-59
2024/03/04 06:43:16;;;;;;;10.50;7.00;;;;;;;;;;5092055;28;20454;-56
2024/03/04 06:45:42;;;;;;;19.75;11.57;;;;;;;;;;5092254;28;20107;-55
2024/03/04 06:48:08;;;;;;;12.95;8.20;;;;;;;;;;5091900;28;20024;-58
2024/03/04 06:50:34;;;;;;;19.67;11.38;;;;;;;;;;5058470;22;20250;-52
2024/03/04 06:53:00;;;;;;;10.38;6.45;;;;;;;;;;5052454;28;20028;-50
2024/03/04 06:55:26;;;;;;;12.93;8.93;;;;;;;;;;5052682;28;20033;-53
2024/03/04 06:57:52;;;;;;;10.13;6.13;;;;;;;;;;5034848;28;20025;-55
2024/03/04 07:00:18;;;;;;;12.77;8.43;;;;;;;;;;5052835;28;20029;-49
2024/03/04 07:02:44;;;;;;;10.63;6.45;;;;;;;;;;5034684;28;20479;-53
2024/03/04 07:05:10;;;;;;;9.30;5.50;;;;;;;;;;5035126;28;20120;-53
2024/03/04 07:07:36;;;;;;;17.73;8.43;;;;;;;;;;5051872;28;20021;-53
2024/03/04 07:10:02;;;;;;;9.30;5.50;;;;;;;;;;5052549;28;20017;-54
2024/03/04 07:12:28;;;;;;;12.48;8.65;;;;;;;;;;5051721;28;20048;-54
2024/03/04 07:14:54;;;;;;;9.45;5.60;;;;;;;;;;5052359;28;20082;-51
2024/03/04 07:17:20;;;;;;;15.75;8.68;;;;;;;;;;5034338;28;20194;-55
2024/03/04 07:19:46;;;;;;;9.70;6.10;;;;;;;;;;5052186;28;20021;-54
2024/03/04 07:22:12;;;;;;;10.40;6.35;;;;;;;;;;5051815;28;20395;-52
2024/03/04 07:24:38;;;;;;;9.80;5.80;;;;;;;;;;5052030;28;20017;-50
2024/03/04 07:27:04;;;;;;;10.45;6.50;;;;;;;;;;5052076;28;20542;-51
2024/03/04 07:29:30;;;;;;;10.65;7.07;;;;;;;;;;5051822;28;20036;-52
2024/03/04 07:31:56;;;;;;;10.20;6.40;;;;;;;;;;5050494;28;20414;-51
2024/03/04 07:34:26;;;;;;;9.77;5.78;;;;;;;;;;5051451;28;20025;-53
2024/03/04 07:36:52;;;;;;;9.57;5.68;;;;;;;;;;5051932;28;20079;-53
2024/03/04 07:39:18;;;;;;;10.00;5.90;;;;;;;;;;5051500;28;20584;-50
2024/03/04 07:41:44;;;;;;;10.10;6.13;;;;;;;;;;5051146;28;20104;-52
2024/03/04 07:44:10;;;;;;;9.95;5.90;;;;;;;;;;5051329;28;20567;-55
2024/03/04 07:46:36;;;;;;;13.73;5.88;;;;;;;;;;5051875;28;20104;-54
2024/03/04 07:49:02;;;;;;;24.48;15.38;;;;;;;;;;5051685;28;20037;-52
2024/03/04 07:51:28;;;;;;;18.38;12.68;;;;;;;;;;5051153;28;20084;-55
2024/03/04 07:53:54;;;;;;;13.63;7.45;;;;;;;;;;5032958;28;20123;-54
2024/03/04 07:56:20;;;;;;;10.65;6.70;;;;;;;;;;5033160;28;20048;-51
2024/03/04 07:58:46;;;;;;;15.77;9.43;;;;;;;;;;5051226;28;20033;-54
2024/03/04 08:01:12;;;;;;;10.48;6.22;;;;;;;;;;5051104;28;20033;-52
2024/03/04 08:03:38;;;;;;;9.48;5.68;;;;;;;;;;5050745;28;20032;-54
2024/03/04 08:06:05;;;;;;;9.27;5.50;;;;;;;;;;5051356;28;20052;-53
2024/03/04 08:08:31;;;;;;;12.70;8.15;;;;;;;;;;5051602;28;20021;-52
2024/03/04 08:10:58;;;;;;;12.18;8.20;;;;;;;;;;5050873;28;20029;-51
2024/03/04 08:13:23;;;;;;;10.15;6.00;;;;;;;;;;5050910;28;20144;-51
2024/03/04 08:15:50;;;;;;;11.55;7.35;;;;;;;;;;5051244;28;20033;-51
2024/03/04 08:18:16;;;;;;;10.20;6.00;;;;;;;;;;5051153;28;20479;-52
2024/03/04 08:20:42;;;;;;;9.60;5.70;;;;;;;;;;5051317;28;20025;-52
2024/03/04 08:23:08;;;;;;;21.13;11.90;;;;;;;;;;5050464;28;20025;-49
2024/03/04 08:25:34;;;;;;;11.13;6.45;;;;;;;;;;5051197;28;20079;-55
2024/03/04 08:28:00;;;;;;;10.50;6.63;;;;;;;;;;5051221;28;20028;-53
2024/03/04 08:30:26;;;;;;;11.60;7.60;;;;;;;;;;5050828;28;20025;-53
2024/03/04 08:32:53;;;;;;;9.93;5.90;;;;;;;;;;5032170;28;20549;-53
2024/03/04 08:35:19;;;;;;;10.73;6.32;;;;;;;;;;5032697;28;20082;-52
2024/03/04 08:37:45;;;;;;;12.02;7.00;;;;;;;;;;5050768;28;20021;-53
2024/03/04 08:40:14;;;;;;;21.25;17.00;;;;;;;;;;5050431;28;20025;-51
2024/03/04 08:42:41;;;;;;;23.10;12.70;;;;;;;;;;5031998;28;20024;-50
2024/03/04 08:45:08;;;;;;;10.70;6.85;;;;;;;;;;5050528;28;20025;-52
2024/03/04 08:47:34;;;;;;;26.42;16.35;;;;;;;;;;5050625;28;20033;-50
2024/03/04 08:50:00;;;;;;;10.93;6.43;;;;;;;;;;5032279;28;20052;-56
2024/03/04 08:52:27;;;;;;;12.32;8.98;;;;;;;;;;5050070;28;20545;-55
2024/03/04 08:54:54;;;;;;;11.23;6.97;;;;;;;;;;5050208;28;20041;-55
2024/03/04 08:57:20;;;;;;;17.33;11.18;;;;;;;;;;5050575;28;20075;-55
2024/03/04 08:59:46;;;;;;;11.10;6.50;;;;;;;;;;5050253;28;20022;-55
2024/03/04 09:02:12;;;;;;;25.38;14.02;;;;;;;;;;5049487;28;20025;-52
2024/03/04 09:04:38;;;;;;;13.50;11.18;;;;;;;;;;5050758;28;20163;-54
2024/03/04 09:07:04;;;;;;;14.30;9.77;;;;;;;;;;5032245;28;20017;-51
2024/03/04 09:09:34;;;;;;;11.93;7.78;;;;;;;;;;5050101;28;20028;-53
2024/03/04 09:12:03;;;;;;;13.02;8.60;;;;;;;;;;5049894;28;20071;-54
2024/03/04 09:14:29;;;;;;;27.65;15.80;;;;;;;;;;5050396;28;20049;-58
2024/03/04 09:16:55;;;;;;;15.60;8.13;;;;;;;;;;5050067;28;20321;-56
2024/03/04 09:19:21;;;;;;;10.02;6.07;;;;;;;;;;5049878;28;20021;-53
2024/03/04 09:21:48;;;;;;;9.18;5.47;;;;;;;;;;5049799;28;20427;-56
2024/03/04 09:24:14;;;;;;;11.23;8.52;;;;;;;;;;5049441;28;20033;-58
2024/03/04 09:26:44;;;;;;;9.07;5.40;;;;;;;;;;5031902;28;20070;-53
2024/03/04 09:29:10;;;;;;;10.45;6.60;;;;;;;;;;5049920;28;20056;-57
2024/03/04 09:31:36;;;;;;;11.00;6.63;;;;;;;;;;5049600;28;20051;-53
2024/03/04 09:34:02;;;;;;;15.52;9.05;;;;;;;;;;5049681;28;20640;-56
2024/03/04 09:36:29;;;;;;;11.65;7.13;;;;;;;;;;5049885;28;20082;-55
2024/03/04 09:38:54;;;;;;;10.00;5.90;;;;;;;;;;5049872;28;20021;-56
2024/03/04 09:41:21;;;;;;;16.10;9.98;;;;;;;;;;5049740;28;20151;-55
2024/03/04 09:43:48;;;;;;;10.00;6.05;;;;;;;;;;5049312;28;20017;-57
2024/03/04 09:46:17;;;;;;;9.93;5.82;;;;;;;;;;5049707;28;20028;-56
2024/03/04 09:48:45;;;;;;;10.32;6.10;;;;;;;;;;5049590;28;20036;-53
2024/03/04 09:51:11;;;;;;;10.10;5.90;;;;;;;;;;5049588;28;20037;-55
2024/03/04 09:53:38;;;;;;;10.70;6.30;;;;;;;;;;5049518;28;20102;-54
2024/03/04 09:56:05;;;;;;;10.80;6.93;;;;;;;;;;5053283;28;20025;-54
2024/03/04 09:58:34;;;;;;;11.75;6.82;;;;;;;;;;5053989;28;20031;-53
2024/03/04 10:01:00;;;;;;;12.20;7.32;;;;;;;;;;5053840;28;20032;-50
2024/03/04 10:03:28;;;;;;;13.00;8.32;;;;;;;;;;5053089;28;20557;-52
2024/03/04 10:05:55;;;;;;;10.90;6.40;;;;;;;;;;5053679;28;20032;-53
2024/03/04 10:08:22;;;;;;;15.82;10.77;;;;;;;;;;5053430;28;20032;-51
2024/03/04 10:10:49;;;;;;;15.32;11.40;;;;;;;;;;5053982;28;20477;-51
2024/03/04 10:13:16;;;;;;;11.02;7.05;;;;;;;;;;5052986;28;20423;-53
2024/03/04 10:15:45;;;;;;;9.75;5.80;;;;;;;;;;5053248;28;20028;-49
2024/03/04 10:18:11;;;;;;;9.95;5.90;;;;;;;;;;5053211;28;20021;-55
2024/03/04 10:20:37;;;;;;;20.13;14.52;;;;;;;;;;5053070;28;20056;-54
2024/03/04 10:23:04;;;;;;;11.30;7.32;;;;;;;;;;5052959;28;20394;-52
2024/03/04 10:25:30;;;;;;;14.73;9.23;;;;;;;;;;5053088;28;20029;-52
2024/03/04 10:27:56;;;;;;;9.80;5.80;;;;;;;;;;5053929;28;20033;-53
2024/03/04 10:30:24;;;;;;;12.35;7.93;;;;;;;;;;5053580;28;20433;-55
2024/03/04 10:32:57;;;;;;;10.90;7.10;;;;;;;;;;5052551;28;20024;-56
2024/03/04 10:35:25;;;;;;;11.07;6.50;;;;;;;;;;5035266;28;20037;-56
2024/03/04 10:37:51;;;;;;;11.95;7.00;;;;;;;;;;5053005;28;20390;-49
2024/03/04 10:40:21;;;;;;;12.50;7.30;;;;;;;;;;5053239;28;20025;-50
2024/03/04 10:42:47;;;;;;;18.92;13.30;;;;;;;;;;5052243;28;20104;-52
2024/03/04 10:45:15;;;;;;;12.45;7.30;;;;;;;;;;5052928;28;20475;-53
2024/03/04 10:47:41;;;;;;;13.02;8.43;;;;;;;;;;5053103;28;20558;-55
2024/03/04 10:50:08;;;;;;;12.40;7.30;;;;;;;;;;5052541;28;20095;-50
2024/03/04 10:52:34;;;;;;;12.27;7.18;;;;;;;;;;5052624;28;20032;-56
2024/03/04 10:55:01;;;;;;;12.35;7.20;;;;;;;;;;5053308;28;20036;-55
2024/03/04 10:57:28;;;;;;;12.85;8.40;;;;;;;;;;5053248;28;20199;-56
2024/03/04 10:59:58;;;;;;;12.15;7.15;;;;;;;;;;5052827;28;20071;-53
2024/03/04 11:02:34;;;;;;;12.18;7.15;;;;;;;;;;5052098;28;20063;-57
2024/03/04 11:05:01;;;;;;;34.63;14.00;;;;;;;;;;5052707;28;20029;-53
2024/03/04 11:07:28;;;;;;;13.02;7.75;;;;;;;;;;5052875;28;20020;-57
2024/03/04 11:10:00;;;;;;;12.40;7.20;;;;;;;;;;5052349;28;20745;-54
2024/03/04 11:12:26;;;;;;;24.15;9.88;;;;;;;;;;5051550;28;20025;-53
2024/03/04 11:14:56;;;;;;;14.35;9.38;;;;;;;;;;5051857;28;20041;-56
2024/03/04 11:17:32;;;;;;;12.40;7.65;;;;;;;;;;5034265;28;20025;-51
2024/03/04 11:19:59;;;;;;;12.80;7.65;;;;;;;;;;5051980;28;20100;-50
2024/03/04 11:22:26;;;;;;;14.35;8.95;;;;;;;;;;5051244;28;20025;-54
2024/03/04 11:24:52;;;;;;;13.60;8.50;;;;;;;;;;5051958;28;20097;-56
2024/03/04 11:27:19;;;;;;;13.38;8.00;;;;;;;;;;5051828;28;20053;-52
2024/03/04 11:29:47;;;;;;;15.95;11.23;;;;;;;;;;5051427;28;20048;-54
2024/03/04 11:32:13;;;;;;;14.10;8.27;;;;;;;;;;5050902;28;20104;-57
2024/03/04 11:35:05;;;;;;;13.10;7.70;;;;;;;;;;5051790;28;20523;-57
2024/03/04 11:37:31;;;;;;;12.80;7.82;;;;;;;;;;5051851;28;20024;-55
2024/03/04 11:39:58;;;;;;;17.30;11.10;;;;;;;;;;5051805;28;20108;-56
2024/03/04 11:42:33;;;;;;;12.40;7.40;;;;;;;;;;5032278;28;20047;-56
2024/03/04 11:45:00;;;;;;;12.50;8.20;;;;;;;;;;5050916;28;20025;-57
2024/03/04 11:47:32;;;;;;;12.32;7.78;;;;;;;;;;5051134;28;20399;-55
2024/03/04 11:49:59;;;;;;;14.70;9.27;;;;;;;;;;5051032;28;20118;-56
2024/03/04 11:52:28;;;;;;;12.60;8.32;;;;;;;;;;5050785;28;20112;-51
2024/03/04 11:55:01;;;;;;;11.88;6.78;;;;;;;;;;5051696;28;20029;-52
2024/03/04 11:57:27;;;;;;;13.15;7.68;;;;;;;;;;5051514;28;20024;-55
2024/03/04 12:00:00;;;;;;;14.63;10.88;;;;;;;;;;5051427;28;20243;-53
2024/03/04 12:02:26;;;;;;;22.23;11.77;;;;;;;;;;5050549;28;20028;-53
2024/03/04 12:04:53;;;;;;;13.10;7.50;;;;;;;;;;5051411;28;20024;-51
2024/03/04 12:07:21;;;;;;;12.82;8.02;;;;;;;;;;5051533;28;20041;-52
2024/03/04 12:09:47;;;;;;;11.60;7.28;;;;;;;;;;5050933;28;20025;-55
2024/03/04 12:12:14;;;;;;;11.48;6.60;;;;;;;;;;5050467;28;20037;-54
2024/03/04 12:14:42;;;;;;;11.70;7.18;;;;;;;;;;5050823;28;20193;-54
2024/03/04 12:17:08;;;;;;;12.73;7.30;;;;;;;;;;5050392;28;20483;-55
2024/03/04 12:19:34;;;;;;;13.93;9.77;;;;;;;;;;5051531;28;20344;-57
2024/03/04 12:22:01;;;;;;;14.43;8.27;;;;;;;;;;5050561;28;20028;-50
2024/03/04 12:24:29;;;;;;;16.73;9.20;;;;;;;;;;5032909;28;20115;-53
2024/03/04 12:26:55;;;;;;;11.30;6.60;;;;;;;;;;5050678;28;20082;-57
2024/03/04 12:29:25;;;;;;;11.70;6.80;;;;;;;;;;5050770;28;20045;-56
2024/03/04 12:31:55;;;;;;;12.20;7.60;;;;;;;;;;5050081;28;20029;-57
2024/03/04 12:34:22;;;;;;;14.05;7.38;;;;;;;;;;5032650;28;20078;-51
2024/03/04 12:36:51;;;;;;;19.27;9.13;;;;;;;;;;5050552;28;20025;-54
2024/03/04 12:39:21;;;;;;;14.15;9.30;;;;;;;;;;5050556;28;20384;-53
2024/03/04 12:41:50;;;;;;;12.15;7.35;;;;;;;;;;5050195;28;20082;-49
2024/03/04 12:44:21;;;;;;;12.70;8.80;;;;;;;;;;5056088;28;20486;-53
2024/03/04 12:46:50;;;;;;;15.70;7.68;;;;;;;;;;5070071;28;20036;-52
2024/03/04 12:49:17;;;;;;;10.65;6.30;;;;;;;;;;5096166;22;20402;-54
2024/03/04 12:51:44;;;;;;;11.25;7.25;;;;;;;;;;5085875;28;20131;-53
2024/03/04 12:54:26;;;;;;;11.50;6.73;;;;;;;;;;5089629;28;20012;-59
2024/03/04 12:56:53;;;;;;;14.38;8.95;;;;;;;;;;5089936;28;20403;-61
2024/03/04 12:59:20;;;;;;;11.50;6.70;;;;;;;;;;5090562;28;20070;-56
2024/03/04 13:01:46;;;;;;;10.90;6.40;;;;;;;;;;5092117;28;20052;-57
2024/03/04 13:04:12;;;;;;;11.40;6.75;;;;;;;;;;5080432;28;20119;-55
2024/03/04 13:06:38;;;;;;;14.77;10.10;;;;;;;;;;5086409;28;20419;-57
2024/03/04 13:09:04;;;;;;;17.55;11.95;;;;;;;;;;5089393;28;20082;-57
2024/03/04 13:11:30;;;;;;;10.80;6.55;;;;;;;;;;5088114;28;20111;-53
2024/03/04 13:13:56;;;;;;;10.40;6.10;;;;;;;;;;5070883;28;20024;-57
2024/03/04 13:16:22;;;;;;;10.90;6.40;;;;;;;;;;5089690;28;20031;-56
2024/03/04 13:18:48;;;;;;;11.68;6.85;;;;;;;;;;5089576;28;20149;-53
2024/03/04 13:21:14;;;;;;;16.35;8.45;;;;;;;;;;5089189;28;20039;-56
2024/03/04 13:23:40;;;;;;;12.30;7.32;;;;;;;;;;5089256;28;20020;-55
2024/03/04 13:26:06;;;;;;;13.00;7.75;;;;;;;;;;5089596;28;20024;-58
2024/03/04 13:28:32;;;;;;;13.80;7.63;;;;;;;;;;5070996;28;20024;-56
2024/03/04 13:30:58;;;;;;;14.23;9.38;;;;;;;;;;5070196;28;20028;-55
2024/03/04 13:33:24;;;;;;;12.05;7.00;;;;;;;;;;5087891;28;20609;-56
2024/03/04 13:35:51;;;;;;;12.35;7.30;;;;;;;;;;5088649;28;20025;-58
2024/03/04 13:38:17;;;;;;;13.50;9.20;;;;;;;;;;5088456;28;20020;-58
2024/03/04 13:40:43;;;;;;;13.90;9.95;;;;;;;;;;5088761;28;20012;-57
2024/03/04 13:43:09;;;;;;;12.00;7.00;;;;;;;;;;5070119;28;20597;-59
2024/03/04 13:45:36;;;;;;;12.80;7.50;;;;;;;;;;5088634;28;20032;-59
2024/03/04 13:48:02;;;;;;;13.40;7.63;;;;;;;;;;5088406;28;20402;-60
2024/03/04 13:50:29;;;;;;;12.70;7.50;;;;;;;;;;5070314;28;20036;-55
2024/03/04 13:52:55;;;;;;;14.15;8.93;;;;;;;;;;5087848;28;20024;-57
2024/03/04 13:55:22;;;;;;;13.30;7.90;;;;;;;;;;5088443;28;20423;-55
2024/03/04 13:57:48;;;;;;;12.77;7.40;;;;;;;;;;5070267;28;20032;-57
2024/03/04 14:00:14;;;;;;;12.90;7.55;;;;;;;;;;5088838;28;20020;-54
2024/03/04 14:02:40;;;;;;;13.45;8.30;;;;;;;;;;5070629;28;20048;-56
2024/03/04 14:05:10;;;;;;;15.23;9.70;;;;;;;;;;5081615;28;20032;-55
2024/03/04 14:07:36;;;;;;;13.15;7.95;;;;;;;;;;5088275;28;20024;-55
2024/03/04 14:10:02;;;;;;;15.10;9.93;;;;;;;;;;5088315;28;20100;-54
2024/03/04 14:12:28;;;;;;;12.82;7.50;;;;;;;;;;5087494;28;20028;-56
2024/03/04 14:14:54;;;;;;;12.77;7.47;;;;;;;;;;5087891;28;20034;-58
2024/03/04 14:17:20;;;;;;;14.65;9.73;;;;;;;;;;5087959;28;20016;-59
2024/03/04 14:19:46;;;;;;;12.73;7.47;;;;;;;;;;5088507;28;20028;-59
2024/03/04 14:22:12;;;;;;;12.85;7.50;;;;;;;;;;5088368;28;20115;-56
2024/03/04 14:24:38;;;;;;;13.32;7.93;;;;;;;;;;5088192;28;20090;-56